createdAt,value
2018-01-14T00:00:03.891Z,780.6
2018-01-14T00:00:07.797Z,780.56
2018-01-14T00:00:11.604Z,780.58
2018-01-14T00:00:15.306Z,780.57
2018-01-14T00:00:19.426Z,780.57
2018-01-14T00:00:23.330Z,780.52
2018-01-14T00:00:27.245Z,780.52
2018-01-14T00:00:31.042Z,780.54
2018-01-14T00:00:34.828Z,780.56
2018-01-14T00:00:38.847Z,780.58
2018-01-14T00:00:42.649Z,780.57
2018-01-14T00:00:46.347Z,780.56
2018-01-14T00:00:50.257Z,780.54
2018-01-14T00:00:54.365Z,780.57
2018-01-14T00:00:58.371Z,780.58
2018-01-14T00:01:02.483Z,780.57
2018-01-14T00:01:06.511Z,780.56
2018-01-14T00:01:10.633Z,780.55
2018-01-14T00:01:14.554Z,780.57
2018-01-14T00:01:18.569Z,780.58
2018-01-14T00:01:22.685Z,780.58
2018-01-14T00:01:26.602Z,780.57
2018-01-14T00:01:30.518Z,780.56
2018-01-14T00:01:34.533Z,780.56
2018-01-14T00:01:38.343Z,780.57
2018-01-14T00:01:42.357Z,780.56
2018-01-14T00:01:46.055Z,780.57
2018-01-14T00:01:50.065Z,780.51
2018-01-14T00:01:53.983Z,780.53
2018-01-14T00:01:57.992Z,780.56
2018-01-14T00:02:01.786Z,780.57
2018-01-14T00:02:05.865Z,780.6
2018-01-14T00:02:09.683Z,780.57
2018-01-14T00:02:13.819Z,780.56
2018-01-14T00:02:18.058Z,780.56
2018-01-14T00:02:22.068Z,780.55
2018-01-14T00:02:25.988Z,780.57
2018-01-14T00:02:29.792Z,780.58
2018-01-14T00:02:33.810Z,780.6
2018-01-14T00:02:37.509Z,780.57
2018-01-14T00:02:41.542Z,780.53
2018-01-14T00:02:45.439Z,780.52
2018-01-14T00:02:49.364Z,780.55
2018-01-14T00:02:53.159Z,780.51
2018-01-14T00:02:56.852Z,780.51
2018-01-14T00:03:00.997Z,780.58
2018-01-14T00:03:05.319Z,780.5
2018-01-14T00:03:09.225Z,780.53
2018-01-14T00:03:13.132Z,780.53
2018-01-14T00:03:17.166Z,780.54
2018-01-14T00:03:21.078Z,780.54
2018-01-14T00:03:24.897Z,780.53
2018-01-14T00:03:28.690Z,780.51
2018-01-14T00:03:32.517Z,780.53
2018-01-14T00:03:36.540Z,780.52
2018-01-14T00:03:40.437Z,780.54
2018-01-14T00:03:44.244Z,780.58
2018-01-14T00:03:48.157Z,780.59
2018-01-14T00:03:51.956Z,780.59
2018-01-14T00:03:55.973Z,780.6
2018-01-14T00:04:00.102Z,780.56
2018-01-14T00:04:04.127Z,780.59
2018-01-14T00:04:08.146Z,780.62
2018-01-14T00:04:12.166Z,780.59
2018-01-14T00:04:16.184Z,780.58
2018-01-14T00:04:19.891Z,780.57
2018-01-14T00:04:23.902Z,780.59
2018-01-14T00:04:27.804Z,780.6
2018-01-14T00:04:31.501Z,780.59
2018-01-14T00:04:35.420Z,780.6
2018-01-14T00:04:39.241Z,780.58
2018-01-14T00:04:43.032Z,780.6
2018-01-14T00:04:47.044Z,780.61
2018-01-14T00:04:50.854Z,780.59
2018-01-14T00:04:54.869Z,780.6
2018-01-14T00:04:58.792Z,780.59
2018-01-14T00:05:02.813Z,780.58
2018-01-14T00:05:06.817Z,780.58
2018-01-14T00:05:10.721Z,780.62
2018-01-14T00:05:14.725Z,780.62
2018-01-14T00:05:18.647Z,780.6
2018-01-14T00:05:22.458Z,780.57
2018-01-14T00:05:26.284Z,780.6
2018-01-14T00:05:30.295Z,780.6
2018-01-14T00:05:34.220Z,780.6
2018-01-14T00:05:38.442Z,780.59
2018-01-14T00:05:42.358Z,780.57
2018-01-14T00:05:46.390Z,780.56
2018-01-14T00:05:50.197Z,780.59
2018-01-14T00:05:53.996Z,780.59
2018-01-14T00:05:57.915Z,780.56
2018-01-14T00:06:01.976Z,780.57
2018-01-14T00:06:05.992Z,780.59
2018-01-14T00:06:09.805Z,780.59
2018-01-14T00:06:13.929Z,780.57
2018-01-14T00:06:17.855Z,780.56
2018-01-14T00:06:21.656Z,780.57
2018-01-14T00:06:25.779Z,780.55
2018-01-14T00:06:29.581Z,780.55
2018-01-14T00:06:33.493Z,780.57
2018-01-14T00:06:37.513Z,780.54
2018-01-14T00:06:41.518Z,780.55
2018-01-14T00:06:45.332Z,780.53
2018-01-14T00:06:49.567Z,780.56
2018-01-14T00:06:53.589Z,780.55
2018-01-14T00:06:57.492Z,780.54
2018-01-14T00:07:01.516Z,780.55
2018-01-14T00:07:05.721Z,780.53
2018-01-14T00:07:09.499Z,780.51
2018-01-14T00:07:13.312Z,780.53
2018-01-14T00:07:17.108Z,780.53
2018-01-14T00:07:20.815Z,780.53
2018-01-14T00:07:24.835Z,780.53
2018-01-14T00:07:28.952Z,780.54
2018-01-14T00:07:33.068Z,780.53
2018-01-14T00:07:36.859Z,780.54
2018-01-14T00:07:40.889Z,780.52
2018-01-14T00:07:44.597Z,780.53
2018-01-14T00:07:48.397Z,780.54
2018-01-14T00:07:52.428Z,780.49
2018-01-14T00:07:56.222Z,780.54
2018-01-14T00:08:00.333Z,780.51
2018-01-14T00:08:04.444Z,780.46
2018-01-14T00:08:08.464Z,780.5
2018-01-14T00:08:12.164Z,780.49
2018-01-14T00:08:16.193Z,780.43
2018-01-14T00:08:20.307Z,780.45
2018-01-14T00:08:24.126Z,780.45
2018-01-14T00:08:27.940Z,780.47
2018-01-14T00:08:31.948Z,780.5
2018-01-14T00:08:35.857Z,780.5
2018-01-14T00:08:39.854Z,780.49
2018-01-14T00:08:43.665Z,780.49
2018-01-14T00:08:47.596Z,780.48
2018-01-14T00:08:51.397Z,780.5
2018-01-14T00:08:55.312Z,780.48
2018-01-14T00:08:59.228Z,780.48
2018-01-14T00:09:03.344Z,780.48
2018-01-14T00:09:07.172Z,780.49
2018-01-14T00:09:11.098Z,780.47
2018-01-14T00:09:14.896Z,780.47
2018-01-14T00:09:18.901Z,780.49
2018-01-14T00:09:22.800Z,780.51
2018-01-14T00:09:26.605Z,780.49
2018-01-14T00:09:30.720Z,780.53
2018-01-14T00:09:34.636Z,780.5
2018-01-14T00:09:38.340Z,780.5
2018-01-14T00:09:42.356Z,780.49
2018-01-14T00:09:46.274Z,780.5
2018-01-14T00:09:50.402Z,780.5
2018-01-14T00:09:54.558Z,780.49
2018-01-14T00:09:58.779Z,780.51
2018-01-14T00:10:03.157Z,780.51
2018-01-14T00:10:07.181Z,780.52
2018-01-14T00:10:11.308Z,780.53
2018-01-14T00:10:15.312Z,780.48
2018-01-14T00:10:19.435Z,780.46
2018-01-14T00:10:23.367Z,780.47
2018-01-14T00:10:27.378Z,780.5
2018-01-14T00:10:31.094Z,780.5
2018-01-14T00:10:35.130Z,780.49
2018-01-14T00:10:39.166Z,780.5
2018-01-14T00:10:42.972Z,780.53
2018-01-14T00:10:46.889Z,780.48
2018-01-14T00:10:50.806Z,780.51
2018-01-14T00:10:55.036Z,780.48
2018-01-14T00:10:59.167Z,780.49
2018-01-14T00:11:03.076Z,780.49
2018-01-14T00:11:07.089Z,780.5
2018-01-14T00:11:11.120Z,780.48
2018-01-14T00:11:14.824Z,780.47
2018-01-14T00:11:18.637Z,780.5
2018-01-14T00:11:22.534Z,780.48
2018-01-14T00:11:26.337Z,780.53
2018-01-14T00:11:30.248Z,780.52
2018-01-14T00:11:34.062Z,780.51
2018-01-14T00:11:38.070Z,780.53
2018-01-14T00:11:42.102Z,780.53
2018-01-14T00:11:45.916Z,780.53
2018-01-14T00:11:49.812Z,780.53
2018-01-14T00:11:53.931Z,780.54
2018-01-14T00:11:57.958Z,780.52
2018-01-14T00:12:02.318Z,780.53
2018-01-14T00:12:06.317Z,780.56
2018-01-14T00:12:10.225Z,780.53
2018-01-14T00:12:14.027Z,780.49
2018-01-14T00:12:17.928Z,780.5
2018-01-14T00:12:21.793Z,780.5
2018-01-14T00:12:25.506Z,780.48
2018-01-14T00:12:29.303Z,780.51
2018-01-14T00:12:33.110Z,780.52
2018-01-14T00:12:37.122Z,780.48
2018-01-14T00:12:40.913Z,780.47
2018-01-14T00:12:44.921Z,780.49
2018-01-14T00:12:49.056Z,780.52
2018-01-14T00:12:52.847Z,780.51
2018-01-14T00:12:57.080Z,780.49
2018-01-14T00:13:01.206Z,780.51
2018-01-14T00:13:05.213Z,780.5
2018-01-14T00:13:09.121Z,780.48
2018-01-14T00:13:13.199Z,780.54
2018-01-14T00:13:16.943Z,780.51
2018-01-14T00:13:20.964Z,780.51
2018-01-14T00:13:24.873Z,780.5
2018-01-14T00:13:28.888Z,780.52
2018-01-14T00:13:32.792Z,780.5
2018-01-14T00:13:36.707Z,780.52
2018-01-14T00:13:40.507Z,780.49
2018-01-14T00:13:44.517Z,780.5
2018-01-14T00:13:48.539Z,780.5
2018-01-14T00:13:52.602Z,780.48
2018-01-14T00:13:56.731Z,780.49
2018-01-14T00:14:00.531Z,780.46
2018-01-14T00:14:04.558Z,780.48
2018-01-14T00:14:08.629Z,780.45
2018-01-14T00:14:12.846Z,780.46
2018-01-14T00:14:16.846Z,780.47
2018-01-14T00:14:20.860Z,780.46
2018-01-14T00:14:24.658Z,780.46
2018-01-14T00:14:28.374Z,780.47
2018-01-14T00:14:32.490Z,780.44
2018-01-14T00:14:36.305Z,780.46
2018-01-14T00:14:40.015Z,780.44
2018-01-14T00:14:44.047Z,780.41
2018-01-14T00:14:48.072Z,780.44
2018-01-14T00:14:51.979Z,780.45
2018-01-14T00:14:55.905Z,780.44
2018-01-14T00:14:59.918Z,780.43
2018-01-14T00:15:04.117Z,780.41
2018-01-14T00:15:08.229Z,780.4
2018-01-14T00:15:12.251Z,780.42
2018-01-14T00:15:16.273Z,780.4
2018-01-14T00:15:20.188Z,780.37
2018-01-14T00:15:23.983Z,780.42
2018-01-14T00:15:27.683Z,780.36
2018-01-14T00:15:31.606Z,780.37
2018-01-14T00:15:35.405Z,780.37
2018-01-14T00:15:39.570Z,780.39
2018-01-14T00:15:43.368Z,780.39
2018-01-14T00:15:47.283Z,780.37
2018-01-14T00:15:51.090Z,780.39
2018-01-14T00:15:54.891Z,780.33
2018-01-14T00:15:58.801Z,780.37
2018-01-14T00:16:02.834Z,780.35
2018-01-14T00:16:06.759Z,780.34
2018-01-14T00:16:10.767Z,780.34
2018-01-14T00:16:14.566Z,780.37
2018-01-14T00:16:18.388Z,780.37
2018-01-14T00:16:22.093Z,780.33
2018-01-14T00:16:25.915Z,780.32
2018-01-14T00:16:30.039Z,780.32
2018-01-14T00:16:34.077Z,780.34
2018-01-14T00:16:37.905Z,780.32
2018-01-14T00:16:42.022Z,780.32
2018-01-14T00:16:46.043Z,780.32
2018-01-14T00:16:49.965Z,780.28
2018-01-14T00:16:53.982Z,780.32
2018-01-14T00:16:57.903Z,780.25
2018-01-14T00:17:01.905Z,780.24
2018-01-14T00:17:05.718Z,780.29
2018-01-14T00:17:09.642Z,780.29
2018-01-14T00:17:13.344Z,780.3
2018-01-14T00:17:17.245Z,780.27
2018-01-14T00:17:21.309Z,780.26
2018-01-14T00:17:25.129Z,780.29
2018-01-14T00:17:28.928Z,780.28
2018-01-14T00:17:32.724Z,780.27
2018-01-14T00:17:36.524Z,780.26
2018-01-14T00:17:40.627Z,780.29
2018-01-14T00:17:44.748Z,780.28
2018-01-14T00:17:48.556Z,780.29
2018-01-14T00:17:52.555Z,780.29
2018-01-14T00:17:56.696Z,780.27
2018-01-14T00:18:00.820Z,780.28
2018-01-14T00:18:04.826Z,780.23
2018-01-14T00:18:08.728Z,780.24
2018-01-14T00:18:12.745Z,780.26
2018-01-14T00:18:16.859Z,780.25
2018-01-14T00:18:20.760Z,780.25
2018-01-14T00:18:24.688Z,780.26
2018-01-14T00:18:28.724Z,780.28
2018-01-14T00:18:32.630Z,780.24
2018-01-14T00:18:36.558Z,780.23
2018-01-14T00:18:40.457Z,780.24
2018-01-14T00:18:44.478Z,780.28
2018-01-14T00:18:48.410Z,780.24
2018-01-14T00:18:52.544Z,780.24
2018-01-14T00:18:56.445Z,780.24
2018-01-14T00:19:00.443Z,780.23
2018-01-14T00:19:04.620Z,780.26
2018-01-14T00:19:08.955Z,780.21
2018-01-14T00:19:13.186Z,780.27
2018-01-14T00:19:17.203Z,780.22
2018-01-14T00:19:21.014Z,780.25
2018-01-14T00:19:24.914Z,780.23
2018-01-14T00:19:28.614Z,780.25
2018-01-14T00:19:32.644Z,780.27
2018-01-14T00:19:36.557Z,780.26
2018-01-14T00:19:40.261Z,780.25
2018-01-14T00:19:44.065Z,780.24
2018-01-14T00:19:47.754Z,780.23
2018-01-14T00:19:51.675Z,780.24
2018-01-14T00:19:55.719Z,780.25
2018-01-14T00:19:59.946Z,780.26
2018-01-14T00:20:03.751Z,780.23
2018-01-14T00:20:07.667Z,780.24
2018-01-14T00:20:11.458Z,780.28
2018-01-14T00:20:15.359Z,780.23
2018-01-14T00:20:19.151Z,780.27
2018-01-14T00:20:23.368Z,780.27
2018-01-14T00:20:27.266Z,780.27
2018-01-14T00:20:30.966Z,780.3
2018-01-14T00:20:34.878Z,780.27
2018-01-14T00:20:38.573Z,780.28
2018-01-14T00:20:42.639Z,780.26
2018-01-14T00:20:46.594Z,780.24
2018-01-14T00:20:50.398Z,780.26
2018-01-14T00:20:54.298Z,780.25
2018-01-14T00:20:58.311Z,780.28
2018-01-14T00:21:02.128Z,780.23
2018-01-14T00:21:05.934Z,780.26
2018-01-14T00:21:10.051Z,780.25
2018-01-14T00:21:13.963Z,780.25
2018-01-14T00:21:17.979Z,780.27
2018-01-14T00:21:21.777Z,780.26
2018-01-14T00:21:25.681Z,780.26
2018-01-14T00:21:29.710Z,780.27
2018-01-14T00:21:33.411Z,780.25
2018-01-14T00:21:37.211Z,780.2
2018-01-14T00:21:41.117Z,780.2
2018-01-14T00:21:45.036Z,780.22
2018-01-14T00:21:49.065Z,780.25
2018-01-14T00:21:53.254Z,780.23
2018-01-14T00:21:57.288Z,780.23
2018-01-14T00:22:01.092Z,780.24
2018-01-14T00:22:04.894Z,780.23
2018-01-14T00:22:08.812Z,780.24
2018-01-14T00:22:12.825Z,780.26
2018-01-14T00:22:16.730Z,780.27
2018-01-14T00:22:20.740Z,780.26
2018-01-14T00:22:24.870Z,780.24
2018-01-14T00:22:28.564Z,780.23
2018-01-14T00:22:32.486Z,780.24
2018-01-14T00:22:36.504Z,780.26
2018-01-14T00:22:40.302Z,780.25
2018-01-14T00:22:44.204Z,780.28
2018-01-14T00:22:48.012Z,780.27
2018-01-14T00:22:52.017Z,780.26
2018-01-14T00:22:56.130Z,780.29
2018-01-14T00:22:59.824Z,780.24
2018-01-14T00:23:03.883Z,780.22
2018-01-14T00:23:07.905Z,780.21
2018-01-14T00:23:11.709Z,780.23
2018-01-14T00:23:15.738Z,780.24
2018-01-14T00:23:19.639Z,780.22
2018-01-14T00:23:23.459Z,780.2
2018-01-14T00:23:27.259Z,780.21
2018-01-14T00:23:31.175Z,780.27
2018-01-14T00:23:35.101Z,780.21
2018-01-14T00:23:39.026Z,780.24
2018-01-14T00:23:42.950Z,780.23
2018-01-14T00:23:46.759Z,780.2
2018-01-14T00:23:50.889Z,780.21
2018-01-14T00:23:54.787Z,780.22
2018-01-14T00:23:58.693Z,780.23
2018-01-14T00:24:02.796Z,780.26
2018-01-14T00:24:06.483Z,780.23
2018-01-14T00:24:10.493Z,780.26
2018-01-14T00:24:14.398Z,780.24
2018-01-14T00:24:18.427Z,780.23
2018-01-14T00:24:22.344Z,780.22
2018-01-14T00:24:26.261Z,780.29
2018-01-14T00:24:30.063Z,780.25
2018-01-14T00:24:34.216Z,780.26
2018-01-14T00:24:38.141Z,780.28
2018-01-14T00:24:42.158Z,780.26
2018-01-14T00:24:46.061Z,780.28
2018-01-14T00:24:49.972Z,780.27
2018-01-14T00:24:53.987Z,780.28
2018-01-14T00:24:57.988Z,780.24
2018-01-14T00:25:01.886Z,780.29
2018-01-14T00:25:05.784Z,780.28
2018-01-14T00:25:09.796Z,780.26
2018-01-14T00:25:13.715Z,780.24
2018-01-14T00:25:17.928Z,780.24
2018-01-14T00:25:21.859Z,780.24
2018-01-14T00:25:25.676Z,780.26
2018-01-14T00:25:29.491Z,780.26
2018-01-14T00:25:33.725Z,780.24
2018-01-14T00:25:37.556Z,780.27
2018-01-14T00:25:41.467Z,780.26
2018-01-14T00:25:45.393Z,780.26
2018-01-14T00:25:49.193Z,780.24
2018-01-14T00:25:53.104Z,780.26
2018-01-14T00:25:56.912Z,780.23
2018-01-14T00:26:00.933Z,780.24
2018-01-14T00:26:05.207Z,780.23
2018-01-14T00:26:09.350Z,780.21
2018-01-14T00:26:13.053Z,780.21
2018-01-14T00:26:17.173Z,780.22
2018-01-14T00:26:21.203Z,780.2
2018-01-14T00:26:25.206Z,780.24
2018-01-14T00:26:28.990Z,780.24
2018-01-14T00:26:32.903Z,780.2
2018-01-14T00:26:36.830Z,780.25
2018-01-14T00:26:40.954Z,780.22
2018-01-14T00:26:44.965Z,780.21
2018-01-14T00:26:49.046Z,780.2
2018-01-14T00:26:52.952Z,780.22
2018-01-14T00:26:57.159Z,780.19
2018-01-14T00:27:00.862Z,780.15
2018-01-14T00:27:04.771Z,780.22
2018-01-14T00:27:08.777Z,780.2
2018-01-14T00:27:12.894Z,780.21
2018-01-14T00:27:16.719Z,780.2
2018-01-14T00:27:20.735Z,780.2
2018-01-14T00:27:24.842Z,780.2
2018-01-14T00:27:28.641Z,780.22
2018-01-14T00:27:32.451Z,780.2
2018-01-14T00:27:36.475Z,780.2
2018-01-14T00:27:40.485Z,780.2
2018-01-14T00:27:44.184Z,780.21
2018-01-14T00:27:47.981Z,780.2
2018-01-14T00:27:51.690Z,780.22
2018-01-14T00:27:55.502Z,780.19
2018-01-14T00:27:59.416Z,780.19
2018-01-14T00:28:03.438Z,780.17
2018-01-14T00:28:07.373Z,780.2
2018-01-14T00:28:11.397Z,780.17
2018-01-14T00:28:15.521Z,780.12
2018-01-14T00:28:19.437Z,780.17
2018-01-14T00:28:23.347Z,780.18
2018-01-14T00:28:27.148Z,780.11
2018-01-14T00:28:30.954Z,780.16
2018-01-14T00:28:34.862Z,780.15
2018-01-14T00:28:39.029Z,780.17
2018-01-14T00:28:42.945Z,780.17
2018-01-14T00:28:46.869Z,780.16
2018-01-14T00:28:50.791Z,780.16
2018-01-14T00:28:54.813Z,780.13
2018-01-14T00:28:58.611Z,780.13
2018-01-14T00:29:02.528Z,780.1
2018-01-14T00:29:06.561Z,780.15
2018-01-14T00:29:10.367Z,780.09
2018-01-14T00:29:14.281Z,780.11
2018-01-14T00:29:18.076Z,780.13
2018-01-14T00:29:22.089Z,780.13
2018-01-14T00:29:26.236Z,780.14
2018-01-14T00:29:30.347Z,780.14
2018-01-14T00:29:34.371Z,780.13
2018-01-14T00:29:38.407Z,780.13
2018-01-14T00:29:42.206Z,780.12
2018-01-14T00:29:46.012Z,780.14
2018-01-14T00:29:49.693Z,780.12
2018-01-14T00:29:53.697Z,780.06
2018-01-14T00:29:57.727Z,780.11
2018-01-14T00:30:02.016Z,780.12
2018-01-14T00:30:06.146Z,780.09
2018-01-14T00:30:10.063Z,780.05
2018-01-14T00:30:13.990Z,780.08
2018-01-14T00:30:18.129Z,780.05
2018-01-14T00:30:21.957Z,780.09
2018-01-14T00:30:25.770Z,780.08
2018-01-14T00:30:29.788Z,780.07
2018-01-14T00:30:33.707Z,780.06
2018-01-14T00:30:37.411Z,780.05
2018-01-14T00:30:41.311Z,780.05
2018-01-14T00:30:45.015Z,780.08
2018-01-14T00:30:48.922Z,780.06
2018-01-14T00:30:53.203Z,780.06
2018-01-14T00:30:57.005Z,780.06
2018-01-14T00:31:01.037Z,780.04
2018-01-14T00:31:05.465Z,780.04
2018-01-14T00:31:09.288Z,780.04
2018-01-14T00:31:13.420Z,780.04
2018-01-14T00:31:17.317Z,780.02
2018-01-14T00:31:21.430Z,780.02
2018-01-14T00:31:25.221Z,780.02
2018-01-14T00:31:29.332Z,780.03
2018-01-14T00:31:33.355Z,780.02
2018-01-14T00:31:37.208Z,780.02
2018-01-14T00:31:41.007Z,779.98
2018-01-14T00:31:44.798Z,779.98
2018-01-14T00:31:48.700Z,780.02
2018-01-14T00:31:52.628Z,779.97
2018-01-14T00:31:56.641Z,779.98
2018-01-14T00:32:00.539Z,780
2018-01-14T00:32:04.575Z,780
2018-01-14T00:32:08.592Z,779.99
2018-01-14T00:32:12.411Z,779.96
2018-01-14T00:32:16.330Z,779.97
2018-01-14T00:32:20.140Z,780
2018-01-14T00:32:23.930Z,779.95
2018-01-14T00:32:27.854Z,779.97
2018-01-14T00:32:31.877Z,779.95
2018-01-14T00:32:35.875Z,779.97
2018-01-14T00:32:39.672Z,779.93
2018-01-14T00:32:43.364Z,779.96
2018-01-14T00:32:47.169Z,779.97
2018-01-14T00:32:51.177Z,779.97
2018-01-14T00:32:55.081Z,779.95
2018-01-14T00:32:59.094Z,779.95
2018-01-14T00:33:03.373Z,779.96
2018-01-14T00:33:07.168Z,779.97
2018-01-14T00:33:11.290Z,779.98
2018-01-14T00:33:15.223Z,779.96
2018-01-14T00:33:19.139Z,779.97
2018-01-14T00:33:23.055Z,779.96
2018-01-14T00:33:27.073Z,779.98
2018-01-14T00:33:30.888Z,779.96
2018-01-14T00:33:34.588Z,779.95
2018-01-14T00:33:38.604Z,779.95
2018-01-14T00:33:42.521Z,779.95
2018-01-14T00:33:46.438Z,779.97
2018-01-14T00:33:50.350Z,779.95
2018-01-14T00:33:54.387Z,779.95
2018-01-14T00:33:58.295Z,779.93
2018-01-14T00:34:02.438Z,779.94
2018-01-14T00:34:06.525Z,779.91
2018-01-14T00:34:10.633Z,779.96
2018-01-14T00:34:14.639Z,779.91
2018-01-14T00:34:18.809Z,779.97
2018-01-14T00:34:22.916Z,779.92
2018-01-14T00:34:26.726Z,779.91
2018-01-14T00:34:30.430Z,779.87
2018-01-14T00:34:34.439Z,779.89
2018-01-14T00:34:38.239Z,779.9
2018-01-14T00:34:42.251Z,779.91
2018-01-14T00:34:46.066Z,779.85
2018-01-14T00:34:50.087Z,779.91
2018-01-14T00:34:54.093Z,779.83
2018-01-14T00:34:58.010Z,779.85
2018-01-14T00:35:02.275Z,779.87
2018-01-14T00:35:06.406Z,779.87
2018-01-14T00:35:10.211Z,779.84
2018-01-14T00:35:14.119Z,779.85
2018-01-14T00:35:18.040Z,779.83
2018-01-14T00:35:22.164Z,779.81
2018-01-14T00:35:26.088Z,779.84
2018-01-14T00:35:29.796Z,779.82
2018-01-14T00:35:33.602Z,779.79
2018-01-14T00:35:37.665Z,779.85
2018-01-14T00:35:41.471Z,779.82
2018-01-14T00:35:45.386Z,779.8
2018-01-14T00:35:49.395Z,779.8
2018-01-14T00:35:53.417Z,779.81
2018-01-14T00:35:57.427Z,779.79
2018-01-14T00:36:01.337Z,779.82
2018-01-14T00:36:05.138Z,779.8
2018-01-14T00:36:09.055Z,779.79
2018-01-14T00:36:13.303Z,779.77
2018-01-14T00:36:17.322Z,779.75
2018-01-14T00:36:21.334Z,779.76
2018-01-14T00:36:25.577Z,779.79
2018-01-14T00:36:29.278Z,779.76
2018-01-14T00:36:33.389Z,779.74
2018-01-14T00:36:37.398Z,779.72
2018-01-14T00:36:41.318Z,779.72
2018-01-14T00:36:45.332Z,779.71
2018-01-14T00:36:49.245Z,779.71
2018-01-14T00:36:53.146Z,779.72
2018-01-14T00:36:57.164Z,779.72
2018-01-14T00:37:00.852Z,779.73
2018-01-14T00:37:04.874Z,779.7
2018-01-14T00:37:08.996Z,779.69
2018-01-14T00:37:12.903Z,779.71
2018-01-14T00:37:16.914Z,779.69
2018-01-14T00:37:20.713Z,779.65
2018-01-14T00:37:24.842Z,779.7
2018-01-14T00:37:28.746Z,779.67
2018-01-14T00:37:32.668Z,779.67
2018-01-14T00:37:36.794Z,779.69
2018-01-14T00:37:40.719Z,779.67
2018-01-14T00:37:44.633Z,779.68
2018-01-14T00:37:48.534Z,779.68
2018-01-14T00:37:52.546Z,779.67
2018-01-14T00:37:56.478Z,779.67
2018-01-14T00:38:00.404Z,779.71
2018-01-14T00:38:04.877Z,779.65
2018-01-14T00:38:08.697Z,779.66
2018-01-14T00:38:12.621Z,779.66
2018-01-14T00:38:16.641Z,779.66
2018-01-14T00:38:20.652Z,779.68
2018-01-14T00:38:24.564Z,779.61
2018-01-14T00:38:28.475Z,779.6
2018-01-14T00:38:32.486Z,779.58
2018-01-14T00:38:36.394Z,779.61
2018-01-14T00:38:40.214Z,779.62
2018-01-14T00:38:44.119Z,779.66
2018-01-14T00:38:48.034Z,779.63
2018-01-14T00:38:51.842Z,779.63
2018-01-14T00:38:55.775Z,779.63
2018-01-14T00:38:59.805Z,779.61
2018-01-14T00:39:03.967Z,779.59
2018-01-14T00:39:07.884Z,779.6
2018-01-14T00:39:11.794Z,779.6
2018-01-14T00:39:15.822Z,779.62
2018-01-14T00:39:19.728Z,779.6
2018-01-14T00:39:23.731Z,779.59
2018-01-14T00:39:27.541Z,779.6
2018-01-14T00:39:31.367Z,779.61
2018-01-14T00:39:35.474Z,779.61
2018-01-14T00:39:39.590Z,779.62
2018-01-14T00:39:43.405Z,779.6
2018-01-14T00:39:47.416Z,779.61
2018-01-14T00:39:51.224Z,779.59
2018-01-14T00:39:55.125Z,779.58
2018-01-14T00:39:59.239Z,779.57
2018-01-14T00:40:03.317Z,779.56
2018-01-14T00:40:07.321Z,779.59
2018-01-14T00:40:11.335Z,779.55
2018-01-14T00:40:15.243Z,779.57
2018-01-14T00:40:19.153Z,779.56
2018-01-14T00:40:22.954Z,779.57
2018-01-14T00:40:26.983Z,779.6
2018-01-14T00:40:30.986Z,779.53
2018-01-14T00:40:34.890Z,779.52
2018-01-14T00:40:38.807Z,779.54
2018-01-14T00:40:42.818Z,779.56
2018-01-14T00:40:46.511Z,779.57
2018-01-14T00:40:50.649Z,779.55
2018-01-14T00:40:54.558Z,779.55
2018-01-14T00:40:58.366Z,779.55
2018-01-14T00:41:02.269Z,779.57
2018-01-14T00:41:06.186Z,779.58
2018-01-14T00:41:10.213Z,779.55
2018-01-14T00:41:14.335Z,779.57
2018-01-14T00:41:18.132Z,779.57
2018-01-14T00:41:22.144Z,779.57
2018-01-14T00:41:25.946Z,779.57
2018-01-14T00:41:29.860Z,779.57
2018-01-14T00:41:33.776Z,779.56
2018-01-14T00:41:37.474Z,779.55
2018-01-14T00:41:41.490Z,779.55
2018-01-14T00:41:45.614Z,779.55
2018-01-14T00:41:49.728Z,779.57
2018-01-14T00:41:53.754Z,779.54
2018-01-14T00:41:57.564Z,779.55
2018-01-14T00:42:01.589Z,779.55
2018-01-14T00:42:05.421Z,779.52
2018-01-14T00:42:09.220Z,779.57
2018-01-14T00:42:13.023Z,779.57
2018-01-14T00:42:17.135Z,779.56
2018-01-14T00:42:21.048Z,779.58
2018-01-14T00:42:25.175Z,779.53
2018-01-14T00:42:29.084Z,779.58
2018-01-14T00:42:33.007Z,779.58
2018-01-14T00:42:36.713Z,779.58
2018-01-14T00:42:40.529Z,779.59
2018-01-14T00:42:44.436Z,779.57
2018-01-14T00:42:48.249Z,779.61
2018-01-14T00:42:52.690Z,779.6
2018-01-14T00:42:56.605Z,779.58
2018-01-14T00:43:00.606Z,779.61
2018-01-14T00:43:04.871Z,779.61
2018-01-14T00:43:08.890Z,779.58
2018-01-14T00:43:12.796Z,779.57
2018-01-14T00:43:17.022Z,779.6
2018-01-14T00:43:21.042Z,779.56
2018-01-14T00:43:25.162Z,779.56
2018-01-14T00:43:29.171Z,779.58
2018-01-14T00:43:33.084Z,779.59
2018-01-14T00:43:36.784Z,779.59
2018-01-14T00:43:40.897Z,779.56
2018-01-14T00:43:44.916Z,779.6
2018-01-14T00:43:48.827Z,779.57
2018-01-14T00:43:52.744Z,779.59
2018-01-14T00:43:56.647Z,779.61
2018-01-14T00:44:00.449Z,779.59
2018-01-14T00:44:04.351Z,779.6
2018-01-14T00:44:08.282Z,779.6
2018-01-14T00:44:12.204Z,779.61
2018-01-14T00:44:16.555Z,779.6
2018-01-14T00:44:20.362Z,779.61
2018-01-14T00:44:24.169Z,779.6
2018-01-14T00:44:27.984Z,779.63
2018-01-14T00:44:31.903Z,779.63
2018-01-14T00:44:35.924Z,779.58
2018-01-14T00:44:39.822Z,779.57
2018-01-14T00:44:43.826Z,779.57
2018-01-14T00:44:47.725Z,779.57
2018-01-14T00:44:51.840Z,779.56
2018-01-14T00:44:55.752Z,779.61
2018-01-14T00:44:59.553Z,779.61
2018-01-14T00:45:03.679Z,779.58
2018-01-14T00:45:07.821Z,779.58
2018-01-14T00:45:11.849Z,779.62
2018-01-14T00:45:15.874Z,779.59
2018-01-14T00:45:19.787Z,779.6
2018-01-14T00:45:23.569Z,779.6
2018-01-14T00:45:27.490Z,779.61
2018-01-14T00:45:31.512Z,779.63
2018-01-14T00:45:35.421Z,779.62
2018-01-14T00:45:39.450Z,779.62
2018-01-14T00:45:43.526Z,779.6
2018-01-14T00:45:47.425Z,779.63
2018-01-14T00:45:51.106Z,779.6
2018-01-14T00:45:54.901Z,779.62
2018-01-14T00:45:58.823Z,779.62
2018-01-14T00:46:02.903Z,779.59
2018-01-14T00:46:06.812Z,779.6
2018-01-14T00:46:10.828Z,779.61
2018-01-14T00:46:15.036Z,779.6
2018-01-14T00:46:18.963Z,779.55
2018-01-14T00:46:22.882Z,779.54
2018-01-14T00:46:26.581Z,779.57
2018-01-14T00:46:30.608Z,779.56
2018-01-14T00:46:34.614Z,779.56
2018-01-14T00:46:38.526Z,779.61
2018-01-14T00:46:42.544Z,779.58
2018-01-14T00:46:46.360Z,779.58
2018-01-14T00:46:50.504Z,779.57
2018-01-14T00:46:54.503Z,779.57
2018-01-14T00:46:58.320Z,779.55
2018-01-14T00:47:02.377Z,779.55
2018-01-14T00:47:06.611Z,779.58
2018-01-14T00:47:10.302Z,779.56
2018-01-14T00:47:14.513Z,779.56
2018-01-14T00:47:18.320Z,779.51
2018-01-14T00:47:22.332Z,779.53
2018-01-14T00:47:26.140Z,779.51
2018-01-14T00:47:30.151Z,779.51
2018-01-14T00:47:34.272Z,779.5
2018-01-14T00:47:38.082Z,779.46
2018-01-14T00:47:41.985Z,779.48
2018-01-14T00:47:45.895Z,779.51
2018-01-14T00:47:49.906Z,779.51
2018-01-14T00:47:53.702Z,779.53
2018-01-14T00:47:57.708Z,779.54
2018-01-14T00:48:01.631Z,779.5
2018-01-14T00:48:05.760Z,779.49
2018-01-14T00:48:09.784Z,779.49
2018-01-14T00:48:13.797Z,779.5
2018-01-14T00:48:17.915Z,779.46
2018-01-14T00:48:21.736Z,779.49
2018-01-14T00:48:25.639Z,779.49
2018-01-14T00:48:29.548Z,779.46
2018-01-14T00:48:33.445Z,779.49
2018-01-14T00:48:37.364Z,779.49
2018-01-14T00:48:41.376Z,779.45
2018-01-14T00:48:45.392Z,779.49
2018-01-14T00:48:49.213Z,779.47
2018-01-14T00:48:53.115Z,779.44
2018-01-14T00:48:56.913Z,779.43
2018-01-14T00:49:00.829Z,779.44
2018-01-14T00:49:04.641Z,779.43
2018-01-14T00:49:08.755Z,779.45
2018-01-14T00:49:12.877Z,779.43
2018-01-14T00:49:16.574Z,779.42
2018-01-14T00:49:20.381Z,779.44
2018-01-14T00:49:24.408Z,779.45
2018-01-14T00:49:28.319Z,779.43